createdAt,value
2023-03-26T00:01:36.656Z,9.50
2023-03-26T00:07:31.361Z,9.50
2023-03-26T00:13:50.064Z,9.60
2023-03-26T00:20:09.074Z,9.70
2023-03-26T00:26:03.487Z,9.70
2023-03-26T00:31:57.947Z,9.70
2023-03-26T00:38:17.783Z,9.80
2023-03-26T00:44:36.193Z,9.80
2023-03-26T00:50:30.584Z,9.80
2023-03-26T00:56:25.351Z,9.80
2023-03-26T01:02:55.916Z,9.70
2023-03-26T01:09:16.030Z,9.70
2023-03-26T01:15:10.819Z,9.60
2023-03-26T01:21:05.786Z,9.60
2023-03-26T01:27:47.262Z,9.60
2023-03-26T01:34:12.462Z,9.50
2023-03-26T01:40:10.127Z,9.40
2023-03-26T01:46:06.916Z,9.30
2023-03-26T01:52:26.364Z,9.30
2023-03-26T01:58:49.845Z,9.20
2023-03-26T02:04:48.478Z,9.20
2023-03-26T02:10:44.463Z,9.20
2023-03-26T02:17:02.957Z,9.20
2023-03-26T02:23:21.362Z,9.20
2023-03-26T02:29:20.412Z,9.20
2023-03-26T02:35:15.451Z,9.20
2023-03-26T02:41:34.433Z,9.10
2023-03-26T02:47:52.869Z,9.10
2023-03-26T02:53:47.629Z,9.00
2023-03-26T02:59:42.266Z,9.00
2023-03-26T03:06:12.811Z,9.00
2023-03-26T03:12:31.231Z,9.10
2023-03-26T03:18:25.697Z,9.10
2023-03-26T03:24:20.188Z,9.10
2023-03-26T03:30:38.660Z,9.00
2023-03-26T03:36:57.120Z,8.90
2023-03-26T03:42:51.655Z,8.80
2023-03-26T03:48:49.863Z,8.90
2023-03-26T03:55:10.802Z,8.80
2023-03-26T04:01:30.796Z,8.80
2023-03-26T04:07:25.440Z,8.80
2023-03-26T04:13:19.897Z,8.80
2023-03-26T04:19:38.626Z,8.80
2023-03-26T04:25:58.037Z,8.80
2023-03-26T04:31:52.514Z,8.70
2023-03-26T04:37:47.793Z,8.70
2023-03-26T04:44:06.981Z,8.70
2023-03-26T04:50:25.584Z,8.70
2023-03-26T04:56:30.150Z,8.60
2023-03-26T05:02:25.549Z,8.70
2023-03-26T05:08:56.312Z,8.60
2023-03-26T05:15:14.866Z,8.60
2023-03-26T05:21:09.442Z,8.70
2023-03-26T05:27:04.339Z,8.60
2023-03-26T05:33:23.657Z,8.60
2023-03-26T05:39:43.956Z,8.70
2023-03-26T05:45:38.441Z,8.70
2023-03-26T05:51:33.105Z,8.70
2023-03-26T05:57:51.656Z,8.60
2023-03-26T06:04:11.806Z,8.70
2023-03-26T06:10:06.709Z,8.60
2023-03-26T06:16:02.289Z,8.70
2023-03-26T06:22:20.853Z,8.70
2023-03-26T06:28:39.307Z,8.60
2023-03-26T06:34:33.665Z,8.60
2023-03-26T06:40:29.062Z,8.60
2023-03-26T06:46:47.630Z,8.60
2023-03-26T06:53:06.121Z,8.70
2023-03-26T06:59:00.669Z,8.60
2023-03-26T07:04:55.152Z,8.60
2023-03-26T07:11:27.066Z,8.70
2023-03-26T07:17:45.554Z,8.80
2023-03-26T07:23:40.332Z,8.70
2023-03-26T07:29:38.238Z,8.60
2023-03-26T07:36:15.012Z,8.60
2023-03-26T07:42:49.109Z,8.70
2023-03-26T07:48:44.359Z,8.60
2023-03-26T07:54:39.041Z,8.50
2023-03-26T08:03:09.973Z,8.60
2023-03-26T08:09:35.934Z,8.50
2023-03-26T08:15:49.966Z,8.60
2023-03-26T08:21:48.109Z,8.60
2023-03-26T08:28:06.571Z,8.70
2023-03-26T08:34:24.993Z,8.80
2023-03-26T08:40:25.032Z,8.90
2023-03-26T08:46:28.670Z,8.90
2023-03-26T08:52:56.398Z,9.20
2023-03-26T08:59:21.453Z,9.10
2023-03-26T09:05:35.064Z,9.30
2023-03-26T09:11:38.661Z,9.50
2023-03-26T09:18:37.167Z,9.50
2023-03-26T09:24:55.520Z,9.70
2023-03-26T09:30:53.569Z,9.90
2023-03-26T09:36:57.294Z,9.80
2023-03-26T09:43:27.263Z,10.10
2023-03-26T09:49:53.793Z,10.20
2023-03-26T09:55:52.391Z,10.00
2023-03-26T10:02:04.778Z,9.80
2023-03-26T10:08:24.786Z,9.80
2023-03-26T10:14:43.389Z,9.70
2023-03-26T10:20:56.769Z,9.70
2023-03-26T10:27:15.693Z,9.60
2023-03-26T10:33:52.275Z,9.80
2023-03-26T10:40:10.765Z,9.60
2023-03-26T10:46:11.392Z,9.60
2023-03-26T10:52:11.918Z,9.50
2023-03-26T10:58:49.396Z,9.40
2023-03-26T11:05:14.889Z,9.50
2023-03-26T11:11:45.510Z,9.30
2023-03-26T11:17:43.257Z,9.30
2023-03-26T11:24:30.473Z,9.40
2023-03-26T11:30:53.491Z,9.30
2023-03-26T11:36:49.093Z,9.50
2023-03-26T11:42:43.933Z,9.30
2023-03-26T11:49:06.856Z,9.50
2023-03-26T11:55:25.545Z,9.40
2023-03-26T12:01:31.122Z,9.40
2023-03-26T12:07:32.676Z,9.50
2023-03-26T12:13:52.738Z,9.70
2023-03-26T12:20:26.181Z,9.60
2023-03-26T12:24:02.195Z,9.70
2023-03-26T12:28:58.341Z,9.90
2023-03-26T12:31:26.584Z,9.90
2023-03-26T12:34:08.054Z,9.80
2023-03-26T12:36:55.491Z,9.70
2023-03-26T12:44:42.879Z,9.60
2023-03-26T12:44:45.938Z,9.70
2023-03-26T12:48:00.516Z,9.70
2023-03-26T12:50:14.586Z,9.70
2023-03-26T12:53:08.149Z,9.80
2023-03-26T12:56:07.603Z,9.70
2023-03-26T13:01:02.410Z,9.80
2023-03-26T13:04:42.349Z,9.80
2023-03-26T13:09:35.761Z,9.80
2023-03-26T13:15:34.819Z,9.80
2023-03-26T13:19:04.711Z,9.70
2023-03-26T13:21:57.223Z,9.60
2023-03-26T13:24:43.464Z,9.40
2023-03-26T13:27:32.342Z,9.30
2023-03-26T13:30:10.103Z,9.30
2023-03-26T13:32:58.732Z,9.30
2023-03-26T13:36:33.661Z,9.30
2023-03-26T13:39:15.281Z,9.30
2023-03-26T13:42:19.919Z,9.20
2023-03-26T13:46:51.354Z,9.10
2023-03-26T13:49:37.503Z,9.10
2023-03-26T13:52:08.685Z,9.00
2023-03-26T13:54:52.200Z,9.00
2023-03-26T13:57:26.042Z,9.10
2023-03-26T14:00:00.910Z,9.10
2023-03-26T14:06:04.699Z,9.10
2023-03-26T14:12:49.438Z,9.20
2023-03-26T14:15:18.601Z,9.20
2023-03-26T14:18:47.005Z,9.20
2023-03-26T14:21:28.222Z,9.10
2023-03-26T14:25:52.752Z,9.00
2023-03-26T14:31:48.101Z,8.80
2023-03-26T14:35:33.654Z,8.80
2023-03-26T14:38:40.379Z,8.90
2023-03-26T14:42:19.816Z,8.90
2023-03-26T14:45:43.147Z,8.90
2023-03-26T14:52:50.455Z,9.00
2023-03-26T14:59:01.746Z,8.90
2023-03-26T15:05:38.142Z,8.60
2023-03-26T15:11:52.449Z,8.50
2023-03-26T15:15:41.201Z,8.50
2023-03-26T15:18:15.482Z,8.50
2023-03-26T15:21:59.199Z,8.50
2023-03-26T15:26:37.174Z,8.60
2023-03-26T15:33:18.959Z,8.70
2023-03-26T15:39:32.092Z,8.70
2023-03-26T15:42:19.605Z,8.60
2023-03-26T15:46:08.514Z,8.60
2023-03-26T15:49:31.009Z,8.50
2023-03-26T15:52:25.386Z,8.60
2023-03-26T15:55:10.513Z,8.40
2023-03-26T15:58:24.327Z,8.50
2023-03-26T16:02:34.821Z,8.50
2023-03-26T16:05:37.346Z,8.60
2023-03-26T16:08:26.050Z,8.50
2023-03-26T16:11:02.367Z,8.60
2023-03-26T16:13:51.134Z,8.50
2023-03-26T16:16:23.389Z,8.60
2023-03-26T16:19:41.171Z,8.60
2023-03-26T16:22:43.681Z,8.60
2023-03-26T16:25:53.178Z,8.50
2023-03-26T16:28:46.877Z,8.50
2023-03-26T16:33:16.606Z,8.40
2023-03-26T16:39:02.582Z,8.40
2023-03-26T16:45:20.916Z,8.30
2023-03-26T16:51:14.961Z,8.40
2023-03-26T16:55:27.292Z,8.20
2023-03-26T16:58:40.089Z,8.10
2023-03-26T17:04:53.889Z,8.10
2023-03-26T17:09:54.364Z,8.00
2023-03-26T17:13:50.998Z,8.00
2023-03-26T17:16:26.663Z,7.80
2023-03-26T17:20:43.720Z,7.80
2023-03-26T17:23:54.390Z,7.90
2023-03-26T17:26:50.120Z,7.80
2023-03-26T17:30:09.513Z,7.80
2023-03-26T17:33:06.064Z,7.80
2023-03-26T17:36:56.044Z,7.70
2023-03-26T17:40:51.649Z,7.70
2023-03-26T17:45:22.161Z,7.80
2023-03-26T17:50:27.659Z,7.70
2023-03-26T17:54:28.853Z,7.70
2023-03-26T17:57:11.143Z,7.60
2023-03-26T18:00:43.752Z,7.60
2023-03-26T18:05:09.675Z,7.50
2023-03-26T18:10:06.037Z,7.40
2023-03-26T18:12:56.376Z,7.40
2023-03-26T18:15:26.626Z,7.40
2023-03-26T18:18:31.745Z,7.40
2023-03-26T18:21:37.148Z,7.50
2023-03-26T18:24:15.647Z,7.50
2023-03-26T18:27:22.734Z,7.50
2023-03-26T18:31:24.005Z,7.50
2023-03-26T18:36:40.010Z,7.40
2023-03-26T18:40:12.604Z,7.30
2023-03-26T18:45:27.166Z,7.20
2023-03-26T18:48:45.579Z,7.20
2023-03-26T18:51:50.138Z,7.20
2023-03-26T18:55:41.200Z,7.30
2023-03-26T18:58:40.071Z,7.30
2023-03-26T19:01:32.321Z,7.40
2023-03-26T19:04:14.626Z,7.40
2023-03-26T19:09:32.264Z,7.20
2023-03-26T19:12:14.485Z,7.10
2023-03-26T19:16:44.857Z,7.10
2023-03-26T19:19:17.101Z,7.10
2023-03-26T19:23:41.617Z,7.10
2023-03-26T19:26:25.643Z,7.00
2023-03-26T19:28:57.668Z,7.10
2023-03-26T19:31:43.097Z,7.10
2023-03-26T19:34:34.925Z,7.20
2023-03-26T19:37:31.850Z,7.20
2023-03-26T19:40:21.201Z,7.20
2023-03-26T19:44:16.920Z,7.30
2023-03-26T19:46:54.004Z,7.10
2023-03-26T19:49:41.303Z,7.00
2023-03-26T19:52:27.120Z,6.90
2023-03-26T19:55:02.080Z,6.90
2023-03-26T19:58:04.322Z,7.00
2023-03-26T20:00:40.796Z,7.10
2023-03-26T20:04:02.080Z,7.10
2023-03-26T20:06:44.442Z,7.20
2023-03-26T20:10:33.360Z,7.10
2023-03-26T20:13:01.167Z,7.20
2023-03-26T20:15:29.822Z,7.10
2023-03-26T20:18:16.216Z,7.10
2023-03-26T20:20:43.690Z,7.10
2023-03-26T20:23:17.691Z,7.10
2023-03-26T20:25:49.832Z,7.20
2023-03-26T20:28:47.759Z,7.10
2023-03-26T20:31:34.494Z,7.20
2023-03-26T20:34:30.157Z,7.30
2023-03-26T20:37:13.785Z,7.30
2023-03-26T20:39:59.746Z,7.30
2023-03-26T20:42:26.552Z,7.30
2023-03-26T20:45:38.801Z,7.40
2023-03-26T20:48:05.931Z,7.40
2023-03-26T20:50:41.626Z,7.40
2023-03-26T20:53:35.450Z,7.40
2023-03-26T20:56:20.321Z,7.40
2023-03-26T20:59:08.225Z,7.50
2023-03-26T21:04:59.101Z,7.30
2023-03-26T21:11:26.489Z,7.30
2023-03-26T21:17:43.666Z,7.00
2023-03-26T21:21:30.102Z,7.10
2023-03-26T21:24:54.117Z,7.00
2023-03-26T21:28:03.602Z,7.00
2023-03-26T21:30:39.999Z,7.00
2023-03-26T21:33:29.508Z,7.10
2023-03-26T21:36:46.695Z,7.10
2023-03-26T21:39:31.926Z,7.20
2023-03-26T21:42:29.416Z,7.20
2023-03-26T21:44:56.763Z,7.10
2023-03-26T21:47:30.380Z,7.20
2023-03-26T21:51:03.470Z,7.20
2023-03-26T21:53:45.398Z,7.30
2023-03-26T21:56:46.639Z,7.30
2023-03-26T21:59:31.614Z,7.20
2023-03-26T22:02:06.641Z,7.20
2023-03-26T22:06:57.852Z,7.20
2023-03-26T22:10:08.212Z,7.20
2023-03-26T22:14:43.381Z,7.20
2023-03-26T22:18:59.808Z,7.10
2023-03-26T22:21:30.695Z,7.00
2023-03-26T22:26:10.358Z,7.00
2023-03-26T22:28:45.874Z,7.00
2023-03-26T22:33:18.527Z,7.10
2023-03-26T22:36:50.868Z,7.00
2023-03-26T22:40:13.680Z,6.90
2023-03-26T22:44:56.352Z,6.90
2023-03-26T22:48:03.761Z,6.90
2023-03-26T22:54:03.580Z,7.00
2023-03-26T22:59:07.145Z,7.00
2023-03-26T23:04:13.012Z,7.00
2023-03-26T23:07:32.754Z,7.10
2023-03-26T23:12:34.251Z,7.10
2023-03-26T23:16:08.731Z,7.20
2023-03-26T23:20:18.228Z,7.10
2023-03-26T23:23:06.857Z,7.20
2023-03-26T23:28:54.595Z,7.20
2023-03-26T23:31:59.941Z,7.30
2023-03-26T23:34:26.804Z,7.20
2023-03-26T23:37:34.967Z,7.20
2023-03-26T23:42:06.196Z,7.20
2023-03-26T23:47:35.126Z,7.10
2023-03-26T23:53:37.376Z,7.10
2023-03-26T23:59:41.457Z,7.10
